Matamoras, Pennsylvania
Current Conditions -  °F | °C
As of 6:53 PM on Wednesday 28 Jan 2015 (Local Time) from KFWN Reporting Station
Clear Clear  
Wind Chill: 27°   Ceiling: Unl
Heat Index: 27°   Visibility: 10mi
Dew Point: -3°   Wind: 3mph
Humidity: 27%   Direction: 330°NNW
Pressure: 30.19"   Gusts: NA
Location:  41.37°N, 74.7°W
Report Text: KFWN 282353Z AUTO 33003KT 10SM CLR M03/M19 A3019 RMK AO2 SLP231 60000 T10281194 11006 21028 51031
Loading
Personal Weather Stations






























Interactive Weather Map New forecast layout! Learn more

10-Day Weather Forecast

Advertisements
Track Severe Weather on mobile